sensor_id;sensor_type;location;lat;lon;timestamp;P1;durP1;ratioP1;P2;durP2;ratioP2
15358;SDS011;7779;49.596;11.070;2022-11-20T00:03:40;11.70;;;8.50;;
15358;SDS011;7779;49.596;11.070;2022-11-20T00:06:08;10.10;;;8.70;;
15358;SDS011;7779;49.596;11.070;2022-11-20T00:08:37;10.23;;;8.13;;
15358;SDS011;7779;49.596;11.070;2022-11-20T00:11:04;9.90;;;8.23;;
15358;SDS011;7779;49.596;11.070;2022-11-20T00:13:32;10.83;;;8.60;;
15358;SDS011;7779;49.596;11.070;2022-11-20T00:15:59;11.87;;;8.70;;
15358;SDS011;7779;49.596;11.070;2022-11-20T00:18:27;11.40;;;8.70;;
15358;SDS011;7779;49.596;11.070;2022-11-20T00:20:53;11.47;;;8.23;;
15358;SDS011;7779;49.596;11.070;2022-11-20T00:23:24;9.77;;;8.50;;
15358;SDS011;7779;49.596;11.070;2022-11-20T00:25:50;10.40;;;8.57;;
15358;SDS011;7779;49.596;11.070;2022-11-20T00:28:16;11.47;;;9.07;;
15358;SDS011;7779;49.596;11.070;2022-11-20T00:30:41;11.17;;;9.00;;
15358;SDS011;7779;49.596;11.070;2022-11-20T00:33:07;11.77;;;9.67;;
15358;SDS011;7779;49.596;11.070;2022-11-20T00:35:33;10.30;;;8.10;;
15358;SDS011;7779;49.596;11.070;2022-11-20T00:37:59;12.60;;;9.00;;
15358;SDS011;7779;49.596;11.070;2022-11-20T00:40:24;12.10;;;9.37;;
15358;SDS011;7779;49.596;11.070;2022-11-20T00:42:50;10.77;;;8.43;;
15358;SDS011;7779;49.596;11.070;2022-11-20T00:45:16;10.73;;;8.73;;
15358;SDS011;7779;49.596;11.070;2022-11-20T00:47:41;11.03;;;8.63;;
15358;SDS011;7779;49.596;11.070;2022-11-20T00:50:07;10.83;;;8.73;;
15358;SDS011;7779;49.596;11.070;2022-11-20T00:52:33;11.07;;;9.03;;
15358;SDS011;7779;49.596;11.070;2022-11-20T00:54:59;11.07;;;8.33;;
15358;SDS011;7779;49.596;11.070;2022-11-20T00:57:25;11.03;;;8.73;;
15358;SDS011;7779;49.596;11.070;2022-11-20T00:59:50;12.50;;;8.53;;
15358;SDS011;7779;49.596;11.070;2022-11-20T01:02:16;10.80;;;9.03;;
15358;SDS011;7779;49.596;11.070;2022-11-20T01:04:42;9.80;;;8.37;;
15358;SDS011;7779;49.596;11.070;2022-11-20T01:07:07;11.03;;;8.40;;
15358;SDS011;7779;49.596;11.070;2022-11-20T01:09:33;12.87;;;9.23;;
15358;SDS011;7779;49.596;11.070;2022-11-20T01:11:59;13.53;;;9.13;;
15358;SDS011;7779;49.596;11.070;2022-11-20T01:14:25;11.50;;;8.90;;
15358;SDS011;7779;49.596;11.070;2022-11-20T01:16:51;12.20;;;9.07;;
15358;SDS011;7779;49.596;11.070;2022-11-20T01:19:18;10.83;;;8.37;;
15358;SDS011;7779;49.596;11.070;2022-11-20T01:21:48;11.30;;;8.63;;
15358;SDS011;7779;49.596;11.070;2022-11-20T01:24:19;11.20;;;9.37;;
15358;SDS011;7779;49.596;11.070;2022-11-20T01:26:47;11.73;;;9.20;;
15358;SDS011;7779;49.596;11.070;2022-11-20T01:29:16;11.27;;;8.10;;
15358;SDS011;7779;49.596;11.070;2022-11-20T01:31:47;11.17;;;8.47;;
15358;SDS011;7779;49.596;11.070;2022-11-20T01:34:15;12.23;;;9.03;;
15358;SDS011;7779;49.596;11.070;2022-11-20T01:36:43;12.63;;;9.27;;
15358;SDS011;7779;49.596;11.070;2022-11-20T01:39:11;12.67;;;9.37;;
15358;SDS011;7779;49.596;11.070;2022-11-20T01:41:46;11.03;;;8.70;;
15358;SDS011;7779;49.596;11.070;2022-11-20T01:44:48;11.27;;;8.60;;
15358;SDS011;7779;49.596;11.070;2022-11-20T01:47:20;10.83;;;8.10;;
15358;SDS011;7779;49.596;11.070;2022-11-20T01:50:18;10.33;;;8.50;;
15358;SDS011;7779;49.596;11.070;2022-11-20T01:53:07;10.80;;;8.93;;
15358;SDS011;7779;49.596;11.070;2022-11-20T01:55:44;11.47;;;8.63;;
15358;SDS011;7779;49.596;11.070;2022-11-20T01:58:18;10.97;;;9.03;;
15358;SDS011;7779;49.596;11.070;2022-11-20T02:00:53;12.30;;;9.70;;
15358;SDS011;7779;49.596;11.070;2022-11-20T02:03:19;11.47;;;9.47;;
15358;SDS011;7779;49.596;11.070;2022-11-20T02:05:47;12.63;;;9.67;;
15358;SDS011;7779;49.596;11.070;2022-11-20T02:08:23;12.37;;;9.13;;
15358;SDS011;7779;49.596;11.070;2022-11-20T02:10:49;11.10;;;9.23;;
15358;SDS011;7779;49.596;11.070;2022-11-20T02:13:15;11.77;;;9.67;;
15358;SDS011;7779;49.596;11.070;2022-11-20T02:16:00;12.93;;;9.43;;
15358;SDS011;7779;49.596;11.070;2022-11-20T02:18:27;11.43;;;9.17;;
15358;SDS011;7779;49.596;11.070;2022-11-20T02:20:54;12.87;;;9.37;;
15358;SDS011;7779;49.596;11.070;2022-11-20T02:23:38;11.20;;;9.00;;
15358;SDS011;7779;49.596;11.070;2022-11-20T02:26:19;11.43;;;9.37;;
15358;SDS011;7779;49.596;11.070;2022-11-20T02:28:48;11.67;;;8.87;;
15358;SDS011;7779;49.596;11.070;2022-11-20T02:31:14;12.77;;;9.10;;
15358;SDS011;7779;49.596;11.070;2022-11-20T02:33:40;12.43;;;9.63;;
15358;SDS011;7779;49.596;11.070;2022-11-20T02:36:07;12.80;;;9.47;;
15358;SDS011;7779;49.596;11.070;2022-11-20T02:38:39;12.50;;;9.30;;
15358;SDS011;7779;49.596;11.070;2022-11-20T02:41:05;13.23;;;9.90;;
15358;SDS011;7779;49.596;11.070;2022-11-20T02:43:30;12.97;;;9.37;;
15358;SDS011;7779;49.596;11.070;2022-11-20T02:45:56;12.43;;;9.57;;
15358;SDS011;7779;49.596;11.070;2022-11-20T02:48:22;12.93;;;9.57;;
15358;SDS011;7779;49.596;11.070;2022-11-20T02:50:48;10.60;;;8.93;;
15358;SDS011;7779;49.596;11.070;2022-11-20T02:53:13;11.20;;;9.00;;
15358;SDS011;7779;49.596;11.070;2022-11-20T02:55:39;12.00;;;9.03;;
15358;SDS011;7779;49.596;11.070;2022-11-20T02:58:05;13.30;;;9.67;;
15358;SDS011;7779;49.596;11.070;2022-11-20T03:00:30;13.47;;;9.73;;
15358;SDS011;7779;49.596;11.070;2022-11-20T03:02:57;13.20;;;9.50;;
15358;SDS011;7779;49.596;11.070;2022-11-20T03:05:22;13.17;;;10.23;;
15358;SDS011;7779;49.596;11.070;2022-11-20T03:07:48;11.73;;;9.33;;
15358;SDS011;7779;49.596;11.070;2022-11-20T03:10:14;12.60;;;9.57;;
15358;SDS011;7779;49.596;11.070;2022-11-20T03:12:39;13.97;;;10.70;;
15358;SDS011;7779;49.596;11.070;2022-11-20T03:15:05;12.37;;;9.40;;
15358;SDS011;7779;49.596;11.070;2022-11-20T03:17:32;13.27;;;10.03;;
15358;SDS011;7779;49.596;11.070;2022-11-20T03:19:58;11.43;;;9.33;;
15358;SDS011;7779;49.596;11.070;2022-11-20T03:22:23;13.10;;;9.83;;
15358;SDS011;7779;49.596;11.070;2022-11-20T03:24:49;12.90;;;9.70;;
15358;SDS011;7779;49.596;11.070;2022-11-20T03:27:14;13.50;;;10.47;;
15358;SDS011;7779;49.596;11.070;2022-11-20T03:29:40;14.10;;;10.30;;
15358;SDS011;7779;49.596;11.070;2022-11-20T03:32:06;14.17;;;10.63;;
15358;SDS011;7779;49.596;11.070;2022-11-20T03:34:32;13.43;;;9.90;;
15358;SDS011;7779;49.596;11.070;2022-11-20T03:36:58;13.43;;;9.97;;
15358;SDS011;7779;49.596;11.070;2022-11-20T03:39:23;14.70;;;10.33;;
15358;SDS011;7779;49.596;11.070;2022-11-20T03:41:49;12.57;;;9.77;;
15358;SDS011;7779;49.596;11.070;2022-11-20T03:44:15;15.70;;;11.13;;
15358;SDS011;7779;49.596;11.070;2022-11-20T03:46:40;13.00;;;9.87;;
15358;SDS011;7779;49.596;11.070;2022-11-20T03:49:06;12.23;;;9.67;;
15358;SDS011;7779;49.596;11.070;2022-11-20T03:51:33;11.47;;;8.97;;
15358;SDS011;7779;49.596;11.070;2022-11-20T03:54:02;13.47;;;10.20;;
15358;SDS011;7779;49.596;11.070;2022-11-20T03:56:32;14.30;;;9.97;;
15358;SDS011;7779;49.596;11.070;2022-11-20T03:59:01;12.30;;;9.67;;
15358;SDS011;7779;49.596;11.070;2022-11-20T04:01:32;12.60;;;9.23;;
15358;SDS011;7779;49.596;11.070;2022-11-20T04:04:00;12.10;;;9.57;;
15358;SDS011;7779;49.596;11.070;2022-11-20T04:06:27;13.53;;;9.97;;
15358;SDS011;7779;49.596;11.070;2022-11-20T04:08:56;14.00;;;10.37;;
15358;SDS011;7779;49.596;11.070;2022-11-20T04:11:24;14.10;;;10.27;;
15358;SDS011;7779;49.596;11.070;2022-11-20T04:13:56;13.83;;;10.40;;
15358;SDS011;7779;49.596;11.070;2022-11-20T04:16:31;13.47;;;10.47;;
15358;SDS011;7779;49.596;11.070;2022-11-20T04:19:00;13.43;;;10.50;;
15358;SDS011;7779;49.596;11.070;2022-11-20T04:21:28;14.60;;;10.47;;
15358;SDS011;7779;49.596;11.070;2022-11-20T04:23:54;14.43;;;10.47;;
15358;SDS011;7779;49.596;11.070;2022-11-20T04:26:21;14.70;;;10.30;;
15358;SDS011;7779;49.596;11.070;2022-11-20T04:28:52;15.30;;;11.27;;
15358;SDS011;7779;49.596;11.070;2022-11-20T04:31:19;14.50;;;11.37;;
15358;SDS011;7779;49.596;11.070;2022-11-20T04:33:48;14.77;;;11.70;;
15358;SDS011;7779;49.596;11.070;2022-11-20T04:36:18;14.13;;;10.73;;
15358;SDS011;7779;49.596;11.070;2022-11-20T04:38:51;13.50;;;10.13;;
15358;SDS011;7779;49.596;11.070;2022-11-20T04:41:19;14.17;;;10.50;;
15358;SDS011;7779;49.596;11.070;2022-11-20T04:43:47;15.07;;;11.03;;
15358;SDS011;7779;49.596;11.070;2022-11-20T04:46:19;13.60;;;10.53;;
15358;SDS011;7779;49.596;11.070;2022-11-20T04:48:46;14.90;;;11.03;;
15358;SDS011;7779;49.596;11.070;2022-11-20T04:51:12;13.50;;;10.37;;
15358;SDS011;7779;49.596;11.070;2022-11-20T04:53:38;14.97;;;10.23;;
15358;SDS011;7779;49.596;11.070;2022-11-20T04:56:05;15.20;;;10.30;;
15358;SDS011;7779;49.596;11.070;2022-11-20T04:58:34;14.23;;;10.80;;
15358;SDS011;7779;49.596;11.070;2022-11-20T05:01:05;14.67;;;11.10;;
15358;SDS011;7779;49.596;11.070;2022-11-20T05:03:40;14.83;;;11.37;;
15358;SDS011;7779;49.596;11.070;2022-11-20T05:06:07;15.80;;;11.10;;
15358;SDS011;7779;49.596;11.070;2022-11-20T05:08:35;14.90;;;11.50;;
15358;SDS011;7779;49.596;11.070;2022-11-20T05:13:46;13.50;;;10.83;;
15358;SDS011;7779;49.596;11.070;2022-11-20T05:16:14;14.23;;;10.97;;
15358;SDS011;7779;49.596;11.070;2022-11-20T05:18:48;16.30;;;11.73;;
15358;SDS011;7779;49.596;11.070;2022-11-20T05:21:15;15.73;;;11.77;;
15358;SDS011;7779;49.596;11.070;2022-11-20T05:23:42;14.80;;;10.90;;
15358;SDS011;7779;49.596;11.070;2022-11-20T05:26:15;16.03;;;11.10;;
15358;SDS011;7779;49.596;11.070;2022-11-20T05:28:46;13.47;;;10.10;;
15358;SDS011;7779;49.596;11.070;2022-11-20T05:31:17;14.33;;;11.27;;
15358;SDS011;7779;49.596;11.070;2022-11-20T05:33:46;17.10;;;11.60;;
15358;SDS011;7779;49.596;11.070;2022-11-20T05:36:12;16.20;;;11.00;;
15358;SDS011;7779;49.596;11.070;2022-11-20T05:38:39;14.10;;;10.73;;
15358;SDS011;7779;49.596;11.070;2022-11-20T05:41:07;17.40;;;12.13;;
15358;SDS011;7779;49.596;11.070;2022-11-20T05:43:39;14.37;;;10.80;;
15358;SDS011;7779;49.596;11.070;2022-11-20T05:46:08;15.17;;;10.77;;
15358;SDS011;7779;49.596;11.070;2022-11-20T05:48:37;14.87;;;10.83;;
15358;SDS011;7779;49.596;11.070;2022-11-20T05:51:05;14.67;;;10.53;;
15358;SDS011;7779;49.596;11.070;2022-11-20T05:53:34;16.23;;;11.97;;
15358;SDS011;7779;49.596;11.070;2022-11-20T05:56:01;14.50;;;11.27;;
15358;SDS011;7779;49.596;11.070;2022-11-20T05:58:37;16.37;;;11.37;;
15358;SDS011;7779;49.596;11.070;2022-11-20T06:03:34;16.83;;;11.53;;
15358;SDS011;7779;49.596;11.070;2022-11-20T06:06:01;16.47;;;12.53;;
15358;SDS011;7779;49.596;11.070;2022-11-20T06:08:28;16.67;;;12.03;;
15358;SDS011;7779;49.596;11.070;2022-11-20T06:10:55;18.17;;;12.37;;
15358;SDS011;7779;49.596;11.070;2022-11-20T06:13:21;14.13;;;11.23;;
15358;SDS011;7779;49.596;11.070;2022-11-20T06:15:50;16.10;;;10.93;;
15358;SDS011;7779;49.596;11.070;2022-11-20T06:18:17;16.93;;;12.57;;
15358;SDS011;7779;49.596;11.070;2022-11-20T06:20:45;17.13;;;12.93;;
15358;SDS011;7779;49.596;11.070;2022-11-20T06:23:11;16.23;;;12.00;;
15358;SDS011;7779;49.596;11.070;2022-11-20T06:25:40;14.93;;;11.30;;
15358;SDS011;7779;49.596;11.070;2022-11-20T06:28:08;16.23;;;11.73;;
15358;SDS011;7779;49.596;11.070;2022-11-20T06:30:34;17.30;;;11.90;;
15358;SDS011;7779;49.596;11.070;2022-11-20T06:33:00;16.57;;;12.33;;
15358;SDS011;7779;49.596;11.070;2022-11-20T06:35:27;15.00;;;11.37;;
15358;SDS011;7779;49.596;11.070;2022-11-20T06:37:52;16.23;;;11.80;;
15358;SDS011;7779;49.596;11.070;2022-11-20T06:40:18;14.90;;;11.17;;
15358;SDS011;7779;49.596;11.070;2022-11-20T06:42:44;16.27;;;11.87;;
15358;SDS011;7779;49.596;11.070;2022-11-20T06:45:10;16.10;;;11.93;;
15358;SDS011;7779;49.596;11.070;2022-11-20T06:47:36;14.67;;;10.77;;
15358;SDS011;7779;49.596;11.070;2022-11-20T06:50:01;14.83;;;10.60;;
15358;SDS011;7779;49.596;11.070;2022-11-20T06:52:27;14.70;;;10.43;;
15358;SDS011;7779;49.596;11.070;2022-11-20T06:54:53;16.33;;;12.20;;
15358;SDS011;7779;49.596;11.070;2022-11-20T06:57:19;16.80;;;11.50;;
15358;SDS011;7779;49.596;11.070;2022-11-20T06:59:44;16.83;;;11.47;;
15358;SDS011;7779;49.596;11.070;2022-11-20T07:02:10;16.03;;;11.93;;
15358;SDS011;7779;49.596;11.070;2022-11-20T07:04:37;17.60;;;11.07;;
15358;SDS011;7779;49.596;11.070;2022-11-20T07:07:03;16.63;;;11.47;;
15358;SDS011;7779;49.596;11.070;2022-11-20T07:09:31;15.77;;;11.67;;
15358;SDS011;7779;49.596;11.070;2022-11-20T07:11:58;13.83;;;10.43;;
15358;SDS011;7779;49.596;11.070;2022-11-20T07:14:24;16.17;;;11.63;;
15358;SDS011;7779;49.596;11.070;2022-11-20T07:16:50;14.40;;;10.83;;
15358;SDS011;7779;49.596;11.070;2022-11-20T07:19:15;16.07;;;10.93;;
15358;SDS011;7779;49.596;11.070;2022-11-20T07:21:41;13.60;;;10.70;;
15358;SDS011;7779;49.596;11.070;2022-11-20T07:24:07;14.43;;;11.03;;
15358;SDS011;7779;49.596;11.070;2022-11-20T07:26:33;15.27;;;11.47;;
15358;SDS011;7779;49.596;11.070;2022-11-20T07:28:58;16.07;;;11.67;;
15358;SDS011;7779;49.596;11.070;2022-11-20T07:31:25;15.23;;;11.50;;
15358;SDS011;7779;49.596;11.070;2022-11-20T07:33:50;15.57;;;11.67;;
15358;SDS011;7779;49.596;11.070;2022-11-20T07:36:16;15.30;;;11.20;;
15358;SDS011;7779;49.596;11.070;2022-11-20T07:38:41;14.73;;;10.80;;
15358;SDS011;7779;49.596;11.070;2022-11-20T07:41:07;16.30;;;11.23;;
15358;SDS011;7779;49.596;11.070;2022-11-20T07:43:33;13.87;;;10.77;;
15358;SDS011;7779;49.596;11.070;2022-11-20T07:45:59;13.13;;;10.30;;
15358;SDS011;7779;49.596;11.070;2022-11-20T07:48:25;15.90;;;10.80;;
15358;SDS011;7779;49.596;11.070;2022-11-20T07:50:54;15.37;;;11.20;;
15358;SDS011;7779;49.596;11.070;2022-11-20T07:53:22;14.43;;;10.80;;
15358;SDS011;7779;49.596;11.070;2022-11-20T07:55:48;14.80;;;11.13;;
15358;SDS011;7779;49.596;11.070;2022-11-20T07:58:13;16.10;;;11.17;;
15358;SDS011;7779;49.596;11.070;2022-11-20T08:00:40;16.50;;;11.13;;
15358;SDS011;7779;49.596;11.070;2022-11-20T08:03:06;15.40;;;10.97;;
15358;SDS011;7779;49.596;11.070;2022-11-20T08:05:32;13.23;;;10.73;;
15358;SDS011;7779;49.596;11.070;2022-11-20T08:07:59;15.67;;;11.13;;
15358;SDS011;7779;49.596;11.070;2022-11-20T08:10:24;14.73;;;10.93;;
15358;SDS011;7779;49.596;11.070;2022-11-20T08:12:51;15.73;;;11.93;;
15358;SDS011;7779;49.596;11.070;2022-11-20T08:15:36;16.13;;;11.93;;
15358;SDS011;7779;49.596;11.070;2022-11-20T08:18:05;14.60;;;10.97;;
15358;SDS011;7779;49.596;11.070;2022-11-20T08:20:34;15.63;;;11.60;;
15358;SDS011;7779;49.596;11.070;2022-11-20T08:23:01;15.43;;;11.47;;
15358;SDS011;7779;49.596;11.070;2022-11-20T08:25:30;14.70;;;10.90;;
15358;SDS011;7779;49.596;11.070;2022-11-20T08:28:00;15.30;;;10.80;;
15358;SDS011;7779;49.596;11.070;2022-11-20T08:30:29;15.60;;;11.70;;
15358;SDS011;7779;49.596;11.070;2022-11-20T08:32:59;19.90;;;13.87;;
15358;SDS011;7779;49.596;11.070;2022-11-20T08:35:32;20.03;;;13.97;;
15358;SDS011;7779;49.596;11.070;2022-11-20T08:38:00;16.97;;;12.50;;
15358;SDS011;7779;49.596;11.070;2022-11-20T08:40:27;17.00;;;11.97;;
15358;SDS011;7779;49.596;11.070;2022-11-20T08:42:53;18.73;;;13.30;;
15358;SDS011;7779;49.596;11.070;2022-11-20T08:45:19;18.90;;;12.97;;
15358;SDS011;7779;49.596;11.070;2022-11-20T08:47:45;18.50;;;12.83;;
15358;SDS011;7779;49.596;11.070;2022-11-20T08:50:12;18.67;;;12.77;;
15358;SDS011;7779;49.596;11.070;2022-11-20T08:52:41;15.43;;;10.93;;
15358;SDS011;7779;49.596;11.070;2022-11-20T08:55:08;15.10;;;11.37;;
15358;SDS011;7779;49.596;11.070;2022-11-20T08:57:35;13.60;;;10.50;;
15358;SDS011;7779;49.596;11.070;2022-11-20T09:00:03;14.93;;;11.37;;
15358;SDS011;7779;49.596;11.070;2022-11-20T09:02:31;15.30;;;11.80;;
15358;SDS011;7779;49.596;11.070;2022-11-20T09:04:57;16.20;;;11.83;;
15358;SDS011;7779;49.596;11.070;2022-11-20T09:07:23;14.70;;;10.67;;
15358;SDS011;7779;49.596;11.070;2022-11-20T09:09:49;16.03;;;11.50;;
15358;SDS011;7779;49.596;11.070;2022-11-20T09:12:15;14.53;;;10.80;;
15358;SDS011;7779;49.596;11.070;2022-11-20T09:14:40;15.60;;;11.37;;
15358;SDS011;7779;49.596;11.070;2022-11-20T09:17:06;13.70;;;11.17;;
15358;SDS011;7779;49.596;11.070;2022-11-20T09:19:32;15.90;;;11.93;;
15358;SDS011;7779;49.596;11.070;2022-11-20T09:21:59;16.87;;;12.23;;
15358;SDS011;7779;49.596;11.070;2022-11-20T09:24:25;14.93;;;11.07;;
15358;SDS011;7779;49.596;11.070;2022-11-20T09:26:52;15.93;;;12.07;;
15358;SDS011;7779;49.596;11.070;2022-11-20T09:29:18;14.63;;;11.60;;
15358;SDS011;7779;49.596;11.070;2022-11-20T09:31:44;15.27;;;11.60;;
15358;SDS011;7779;49.596;11.070;2022-11-20T09:34:09;16.53;;;11.80;;
15358;SDS011;7779;49.596;11.070;2022-11-20T09:36:35;15.40;;;11.73;;
15358;SDS011;7779;49.596;11.070;2022-11-20T09:39:01;16.47;;;11.57;;
15358;SDS011;7779;49.596;11.070;2022-11-20T09:44:19;18.07;;;11.83;;
15358;SDS011;7779;49.596;11.070;2022-11-20T09:47:15;13.77;;;10.27;;
15358;SDS011;7779;49.596;11.070;2022-11-20T09:53:10;14.97;;;10.70;;
15358;SDS011;7779;49.596;11.070;2022-11-20T09:55:49;13.87;;;10.23;;
15358;SDS011;7779;49.596;11.070;2022-11-20T10:01:14;12.43;;;10.10;;
15358;SDS011;7779;49.596;11.070;2022-11-20T10:03:56;15.60;;;11.83;;
15358;SDS011;7779;49.596;11.070;2022-11-20T10:09:36;14.83;;;10.10;;
15358;SDS011;7779;49.596;11.070;2022-11-20T10:15:37;13.83;;;10.23;;
15358;SDS011;7779;49.596;11.070;2022-11-20T10:30:20;12.50;;;9.60;;
15358;SDS011;7779;49.596;11.070;2022-11-20T10:32:54;14.70;;;10.10;;
15358;SDS011;7779;49.596;11.070;2022-11-20T10:35:34;12.37;;;9.93;;
15358;SDS011;7779;49.596;11.070;2022-11-20T10:38:21;13.60;;;10.07;;
15358;SDS011;7779;49.596;11.070;2022-11-20T10:41:03;12.43;;;9.83;;
15358;SDS011;7779;49.596;11.070;2022-11-20T10:44:11;13.37;;;9.47;;
15358;SDS011;7779;49.596;11.070;2022-11-20T10:47:04;13.77;;;10.40;;
15358;SDS011;7779;49.596;11.070;2022-11-20T10:49:38;13.47;;;10.37;;
15358;SDS011;7779;49.596;11.070;2022-11-20T10:55:39;13.67;;;9.70;;
15358;SDS011;7779;49.596;11.070;2022-11-20T11:01:39;12.40;;;9.50;;
15358;SDS011;7779;49.596;11.070;2022-11-20T11:04:22;12.70;;;9.43;;
15358;SDS011;7779;49.596;11.070;2022-11-20T11:07:06;12.17;;;9.60;;
15358;SDS011;7779;49.596;11.070;2022-11-20T11:09:43;12.17;;;9.13;;
15358;SDS011;7779;49.596;11.070;2022-11-20T11:12:13;17.90;;;11.73;;
15358;SDS011;7779;49.596;11.070;2022-11-20T11:14:50;18.73;;;11.57;;
15358;SDS011;7779;49.596;11.070;2022-11-20T11:17:26;13.87;;;9.77;;
15358;SDS011;7779;49.596;11.070;2022-11-20T11:20:03;14.13;;;9.87;;
15358;SDS011;7779;49.596;11.070;2022-11-20T11:22:42;12.83;;;9.67;;
15358;SDS011;7779;49.596;11.070;2022-11-20T11:25:55;13.20;;;10.50;;
15358;SDS011;7779;49.596;11.070;2022-11-20T11:28:18;13.67;;;10.87;;
15358;SDS011;7779;49.596;11.070;2022-11-20T11:30:47;15.27;;;11.47;;
15358;SDS011;7779;49.596;11.070;2022-11-20T11:33:23;14.70;;;11.73;;
15358;SDS011;7779;49.596;11.070;2022-11-20T11:35:55;15.67;;;11.77;;
15358;SDS011;7779;49.596;11.070;2022-11-20T11:38:35;16.47;;;12.90;;
15358;SDS011;7779;49.596;11.070;2022-11-20T11:41:04;19.00;;;13.43;;
15358;SDS011;7779;49.596;11.070;2022-11-20T11:43:32;15.93;;;11.50;;
15358;SDS011;7779;49.596;11.070;2022-11-20T11:49:45;14.17;;;10.77;;
15358;SDS011;7779;49.596;11.070;2022-11-20T11:52:00;12.97;;;9.80;;
15358;SDS011;7779;49.596;11.070;2022-11-20T11:57:31;11.80;;;9.40;;
15358;SDS011;7779;49.596;11.070;2022-11-20T12:00:05;11.27;;;8.70;;
15358;SDS011;7779;49.596;11.070;2022-11-20T12:11:06;11.30;;;8.60;;
15358;SDS011;7779;49.596;11.070;2022-11-20T12:14:02;10.77;;;8.87;;
15358;SDS011;7779;49.596;11.070;2022-11-20T12:16:48;10.73;;;9.33;;
15358;SDS011;7779;49.596;11.070;2022-11-20T12:19:15;15.13;;;10.73;;
15358;SDS011;7779;49.596;11.070;2022-11-20T12:21:45;18.90;;;13.13;;
15358;SDS011;7779;49.596;11.070;2022-11-20T12:24:55;16.37;;;12.63;;
15358;SDS011;7779;49.596;11.070;2022-11-20T12:30:23;11.83;;;9.27;;
15358;SDS011;7779;49.596;11.070;2022-11-20T12:41:41;8.43;;;7.20;;
15358;SDS011;7779;49.596;11.070;2022-11-20T12:47:56;7.40;;;6.37;;
15358;SDS011;7779;49.596;11.070;2022-11-20T12:50:51;7.73;;;6.47;;
15358;SDS011;7779;49.596;11.070;2022-11-20T12:56:25;7.80;;;6.40;;
15358;SDS011;7779;49.596;11.070;2022-11-20T12:59:23;7.20;;;6.43;;
15358;SDS011;7779;49.596;11.070;2022-11-20T13:02:26;6.90;;;5.97;;
15358;SDS011;7779;49.596;11.070;2022-11-20T13:05:17;8.40;;;6.17;;
15358;SDS011;7779;49.596;11.070;2022-11-20T13:08:14;7.53;;;5.87;;
15358;SDS011;7779;49.596;11.070;2022-11-20T13:19:52;6.20;;;5.30;;
15358;SDS011;7779;49.596;11.070;2022-11-20T13:22:28;6.07;;;5.00;;
15358;SDS011;7779;49.596;11.070;2022-11-20T13:25:30;5.93;;;5.13;;
15358;SDS011;7779;49.596;11.070;2022-11-20T13:28:04;8.03;;;5.40;;
15358;SDS011;7779;49.596;11.070;2022-11-20T13:30:55;6.90;;;5.63;;
15358;SDS011;7779;49.596;11.070;2022-11-20T13:33:36;6.97;;;5.50;;
15358;SDS011;7779;49.596;11.070;2022-11-20T13:36:05;7.63;;;5.40;;
15358;SDS011;7779;49.596;11.070;2022-11-20T13:38:49;6.73;;;5.67;;
15358;SDS011;7779;49.596;11.070;2022-11-20T13:41:24;6.17;;;5.30;;
15358;SDS011;7779;49.596;11.070;2022-11-20T13:47:20;12.67;;;10.07;;
15358;SDS011;7779;49.596;11.070;2022-11-20T13:49:51;10.53;;;7.13;;
15358;SDS011;7779;49.596;11.070;2022-11-20T14:00:57;7.07;;;5.47;;
15358;SDS011;7779;49.596;11.070;2022-11-20T14:03:35;8.03;;;6.23;;
15358;SDS011;7779;49.596;11.070;2022-11-20T14:06:11;7.67;;;6.17;;
15358;SDS011;7779;49.596;11.070;2022-11-20T14:08:49;7.13;;;5.70;;
15358;SDS011;7779;49.596;11.070;2022-11-20T14:11:16;6.77;;;5.73;;
15358;SDS011;7779;49.596;11.070;2022-11-20T14:13:53;8.30;;;5.87;;
15358;SDS011;7779;49.596;11.070;2022-11-20T14:16:29;6.13;;;5.23;;
15358;SDS011;7779;49.596;11.070;2022-11-20T14:22:06;8.27;;;6.30;;
15358;SDS011;7779;49.596;11.070;2022-11-20T14:24:40;10.67;;;8.33;;
15358;SDS011;7779;49.596;11.070;2022-11-20T14:27:11;9.80;;;8.03;;
15358;SDS011;7779;49.596;11.070;2022-11-20T14:29:40;11.40;;;8.63;;
15358;SDS011;7779;49.596;11.070;2022-11-20T14:32:08;10.70;;;8.67;;
15358;SDS011;7779;49.596;11.070;2022-11-20T14:34:38;9.77;;;7.53;;
15358;SDS011;7779;49.596;11.070;2022-11-20T14:37:12;15.47;;;10.93;;
15358;SDS011;7779;49.596;11.070;2022-11-20T14:39:49;26.03;;;15.00;;
15358;SDS011;7779;49.596;11.070;2022-11-20T14:42:27;33.80;;;18.23;;
15358;SDS011;7779;49.596;11.070;2022-11-20T14:44:56;27.70;;;15.53;;
15358;SDS011;7779;49.596;11.070;2022-11-20T14:47:25;23.93;;;13.73;;
15358;SDS011;7779;49.596;11.070;2022-11-20T14:49:55;27.43;;;15.23;;
15358;SDS011;7779;49.596;11.070;2022-11-20T14:52:23;20.33;;;12.33;;
15358;SDS011;7779;49.596;11.070;2022-11-20T14:54:53;18.40;;;11.43;;
15358;SDS011;7779;49.596;11.070;2022-11-20T14:57:28;11.53;;;8.83;;
15358;SDS011;7779;49.596;11.070;2022-11-20T15:02:38;9.57;;;7.20;;
15358;SDS011;7779;49.596;11.070;2022-11-20T15:05:06;9.00;;;6.37;;
15358;SDS011;7779;49.596;11.070;2022-11-20T15:07:34;7.93;;;5.93;;
15358;SDS011;7779;49.596;11.070;2022-11-20T15:12:46;7.67;;;5.87;;
15358;SDS011;7779;49.596;11.070;2022-11-20T15:15:30;8.37;;;6.40;;
15358;SDS011;7779;49.596;11.070;2022-11-20T15:18:13;7.97;;;6.80;;
15358;SDS011;7779;49.596;11.070;2022-11-20T15:20:43;8.57;;;7.03;;
15358;SDS011;7779;49.596;11.070;2022-11-20T15:23:14;7.77;;;6.33;;
15358;SDS011;7779;49.596;11.070;2022-11-20T15:25:45;8.53;;;7.00;;
15358;SDS011;7779;49.596;11.070;2022-11-20T15:28:33;7.27;;;6.30;;
15358;SDS011;7779;49.596;11.070;2022-11-20T15:31:04;9.07;;;7.37;;
15358;SDS011;7779;49.596;11.070;2022-11-20T15:33:30;9.90;;;8.10;;
15358;SDS011;7779;49.596;11.070;2022-11-20T15:35:58;11.27;;;7.97;;
15358;SDS011;7779;49.596;11.070;2022-11-20T15:38:24;10.63;;;8.60;;
15358;SDS011;7779;49.596;11.070;2022-11-20T15:40:50;10.03;;;8.20;;
15358;SDS011;7779;49.596;11.070;2022-11-20T15:43:16;9.10;;;7.83;;
15358;SDS011;7779;49.596;11.070;2022-11-20T15:45:43;8.77;;;7.30;;
15358;SDS011;7779;49.596;11.070;2022-11-20T15:51:14;8.47;;;6.73;;
15358;SDS011;7779;49.596;11.070;2022-11-20T15:53:54;7.80;;;6.67;;
15358;SDS011;7779;49.596;11.070;2022-11-20T15:56:21;10.00;;;8.30;;
15358;SDS011;7779;49.596;11.070;2022-11-20T15:58:47;11.43;;;9.53;;
15358;SDS011;7779;49.596;11.070;2022-11-20T16:01:15;11.40;;;9.73;;
15358;SDS011;7779;49.596;11.070;2022-11-20T16:03:44;10.60;;;9.30;;
15358;SDS011;7779;49.596;11.070;2022-11-20T16:06:10;10.53;;;8.00;;
15358;SDS011;7779;49.596;11.070;2022-11-20T16:08:36;9.60;;;7.17;;
15358;SDS011;7779;49.596;11.070;2022-11-20T16:11:02;8.73;;;6.40;;
15358;SDS011;7779;49.596;11.070;2022-11-20T16:13:30;9.07;;;6.27;;
15358;SDS011;7779;49.596;11.070;2022-11-20T16:16:25;7.20;;;5.50;;
15358;SDS011;7779;49.596;11.070;2022-11-20T16:19:03;6.67;;;5.17;;
15358;SDS011;7779;49.596;11.070;2022-11-20T16:21:29;5.67;;;4.80;;
15358;SDS011;7779;49.596;11.070;2022-11-20T16:23:59;8.80;;;4.97;;
15358;SDS011;7779;49.596;11.070;2022-11-20T16:26:28;7.63;;;5.70;;
15358;SDS011;7779;49.596;11.070;2022-11-20T16:28:55;7.73;;;6.60;;
15358;SDS011;7779;49.596;11.070;2022-11-20T16:31:21;7.70;;;5.67;;
15358;SDS011;7779;49.596;11.070;2022-11-20T16:33:54;7.27;;;5.93;;
15358;SDS011;7779;49.596;11.070;2022-11-20T16:36:24;7.30;;;5.93;;
15358;SDS011;7779;49.596;11.070;2022-11-20T16:38:56;6.83;;;5.63;;